Hobart, New York
Current Conditions -  °F | °C
As of 7:15 PM on Sunday 25 Jan 2015 (Local Time) from KNY0 Reporting Station
Clear Clear  
Wind Chill:   Ceiling: Unl
Heat Index: 12°   Visibility: 10mi
Dew Point: -2°   Wind: 7mph
Humidity: 54%   Direction: 290°WNW
Pressure: 29.96"   Gusts: NA
Location:  42.37°N, 74.67°W
Report Text: KNY0 260015Z AUTO 29006KT 10SM CLR M11/M19 A2996 RMK AO2 T11121189
Loading
Personal Weather Stations






























Interactive Weather Map New forecast layout! Learn more

10-Day Weather Forecast

Advertisements
Track Severe Weather on mobile